Time;durP1;ratioP1;P1;durP2;ratioP2;P2;SDS_P1;SDS_P2;PMS_P1;PMS_P2;Temp;Humidity;BMP_temperature;BMP_pressure;BME280_temperature;BME280_humidity;BME280_pressure;Samples;Min_cycle;Max_cycle;Signal;HPM_P1;HPM_P2
2021/06/14 00:00:15;;;;;;;7.28;4.78;;;;;;;11.06;91.72;102468.59;4985481;28;20220;-80
2021/06/14 00:02:42;;;;;;;7.93;4.82;;;;;;;11.00;91.49;102466.38;5009903;28;20048;-80
2021/06/14 00:05:12;;;;;;;8.90;4.68;;;;;;;10.96;90.78;102468.38;4984075;28;20037;-78
2021/06/14 00:07:38;;;;;;;7.47;4.68;;;;;;;10.97;91.12;102458.72;5007848;28;20025;-80
2021/06/14 00:10:07;;;;;;;11.63;4.70;;;;;;;10.91;91.10;102458.22;4963769;28;20107;-79
2021/06/14 00:12:32;;;;;;;9.27;4.63;;;;;;;10.86;91.27;102451.59;5008753;28;20126;-81
2021/06/14 00:14:58;;;;;;;10.30;4.55;;;;;;;10.80;91.05;102452.84;4984831;28;20136;-79
2021/06/14 00:17:24;;;;;;;8.48;4.60;;;;;;;10.79;91.85;102447.72;4973888;28;20042;-80
2021/06/14 00:19:49;;;;;;;9.95;4.60;;;;;;;10.74;91.66;102445.41;4985779;28;20033;-82
2021/06/14 00:22:16;;;;;;;7.97;4.70;;;;;;;10.73;91.47;102451.59;4986873;28;20040;-79
2021/06/14 00:24:42;;;;;;;7.65;4.03;;;;;;;10.72;90.88;102449.94;4998750;28;20025;-81
2021/06/14 00:27:08;;;;;;;8.35;4.80;;;;;;;10.74;91.08;102450.66;5005018;28;20084;-81
2021/06/14 00:29:33;;;;;;;11.65;4.88;;;;;;;10.81;91.58;102448.44;4978875;28;20161;-83
2021/06/14 00:31:59;;;;;;;10.77;5.03;;;;;;;10.91;92.07;102445.09;4994191;28;20120;-81
2021/06/14 00:34:26;;;;;;;8.82;4.80;;;;;;;10.88;92.22;102450.53;5003268;28;20538;-82
2021/06/14 00:36:51;;;;;;;9.60;5.38;;;;;;;10.91;92.00;102445.09;4980995;28;20042;-80
2021/06/14 00:39:17;;;;;;;10.82;5.15;;;;;;;10.93;91.73;102439.72;4996718;28;20045;-80
2021/06/14 00:41:42;;;;;;;10.43;5.32;;;;;;;10.89;91.72;102436.47;5023497;28;20057;-81
2021/06/14 00:44:09;;;;;;;9.95;4.90;;;;;;;10.83;91.24;102441.31;5002604;28;20043;-82
2021/06/14 00:46:35;;;;;;;9.20;4.60;;;;;;;10.75;91.58;102441.00;4990305;28;20048;-80
2021/06/14 00:49:01;;;;;;;11.77;4.57;;;;;;;10.72;91.54;102442.06;4964564;28;20117;-82
2021/06/14 00:51:27;;;;;;;8.18;4.68;;;;;;;10.63;92.08;102429.56;4994197;28;20042;-80
2021/06/14 00:53:55;;;;;;;8.65;4.50;;;;;;;10.60;91.23;102435.84;4994458;22;20105;-79
2021/06/14 00:56:24;;;;;;;8.85;4.70;;;;;;;10.63;91.82;102440.06;5026773;28;20037;-79
2021/06/14 00:58:50;;;;;;;9.80;4.20;;;;;;;10.59;91.47;102444.69;5001975;28;20125;-78
2021/06/14 01:01:16;;;;;;;7.40;4.40;;;;;;;10.58;91.37;102434.28;5031946;28;20033;-82
2021/06/14 01:03:43;;;;;;;10.30;4.65;;;;;;;10.55;91.60;102430.09;5008351;28;20030;-80
2021/06/14 01:06:12;;;;;;;8.35;4.60;;;;;;;10.56;91.63;102449.31;5045472;28;20047;-82
2021/06/14 01:08:42;;;;;;;6.97;3.88;;;;;;;10.49;91.32;102441.84;5033639;28;20030;-80
2021/06/14 01:11:21;;;;;;;6.88;3.90;;;;;;;10.41;91.18;102445.94;5030076;28;20052;-81
2021/06/14 01:13:57;;;;;;;6.70;4.07;;;;;;;10.32;91.12;102447.38;5046845;28;20112;-80
2021/06/14 01:16:38;;;;;;;10.98;4.50;;;;;;;10.28;91.03;102440.63;4997339;28;20145;-79
2021/06/14 01:19:07;;;;;;;10.27;4.07;;;;;;;10.33;91.31;102438.59;5031020;28;20063;-78
2021/06/14 01:22:08;;;;;;;8.98;4.35;;;;;;;10.28;91.39;102417.03;5026607;28;20079;-80
2021/06/14 01:24:56;;;;;;;8.40;4.05;;;;;;;10.26;91.27;102421.53;5023554;28;20026;-81
2021/06/14 01:27:44;;;;;;;8.63;4.05;;;;;;;10.22;91.39;102426.16;5014180;28;20060;-80
2021/06/14 01:30:21;;;;;;;8.73;4.28;;;;;;;10.24;91.94;102432.13;5044792;28;20037;-80
2021/06/14 01:32:49;;;;;;;10.57;4.22;;;;;;;10.19;92.46;102425.50;5045990;28;20049;-79
2021/06/14 01:35:24;;;;;;;12.50;4.57;;;;;;;10.11;91.72;102419.03;5028091;28;20037;-81
2021/06/14 01:37:55;;;;;;;7.90;4.20;;;;;;;10.07;92.22;102419.31;5020553;28;20037;-81
2021/06/14 01:40:22;;;;;;;10.82;4.78;;;;;;;10.04;92.05;102415.13;5008336;28;20064;-82
2021/06/14 01:42:51;;;;;;;10.15;4.35;;;;;;;9.99;92.30;102404.09;5030929;28;20041;-79
2021/06/14 01:45:20;;;;;;;9.02;4.60;;;;;;;10.08;92.52;102403.50;5012277;28;20057;-80
2021/06/14 01:47:47;;;;;;;8.38;3.90;;;;;;;10.07;92.38;102404.41;5030302;28;20117;-80
2021/06/14 01:50:14;;;;;;;9.25;4.47;;;;;;;10.07;92.02;102404.41;5025531;28;20121;-80
2021/06/14 01:52:42;;;;;;;8.20;4.18;;;;;;;9.95;92.36;102386.91;5034276;28;20450;-79
2021/06/14 01:55:16;;;;;;;10.35;4.35;;;;;;;10.05;92.78;102397.59;5031665;28;20065;-80
2021/06/14 01:57:51;;;;;;;7.57;4.22;;;;;;;9.94;92.28;102383.44;5030156;28;20060;-80
2021/06/14 02:00:22;;;;;;;7.65;4.32;;;;;;;9.87;92.19;102376.06;5025254;28;20310;-81
2021/06/14 02:03:07;;;;;;;9.73;4.05;;;;;;;9.89;92.40;102387.31;5045448;28;20092;-81
2021/06/14 02:06:00;;;;;;;9.18;3.83;;;;;;;9.84;92.54;102395.47;5026822;28;20049;-81
2021/06/14 02:08:28;;;;;;;8.18;4.20;;;;;;;9.80;92.25;102390.53;5031923;28;20159;-78
2021/06/14 02:10:56;;;;;;;7.68;4.07;;;;;;;9.79;92.65;102388.84;5033759;28;20042;-83
2021/06/14 02:13:23;;;;;;;8.60;3.75;;;;;;;9.76;92.88;102392.53;5021968;28;20037;-81
2021/06/14 02:15:49;;;;;;;6.63;4.15;;;;;;;9.70;92.72;102380.66;5028840;28;20025;-82
2021/06/14 02:18:22;;;;;;;9.30;4.28;;;;;;;9.69;92.23;102386.00;5023762;28;20641;-82
2021/06/14 02:20:50;;;;;;;9.32;4.10;;;;;;;9.59;92.67;102380.53;5018761;28;20053;-80
2021/06/14 02:23:15;;;;;;;7.85;4.03;;;;;;;9.60;92.55;102381.34;5033069;28;20045;-80
2021/06/14 02:25:45;;;;;;;6.68;4.28;;;;;;;9.59;92.38;102363.94;5040810;28;20040;-79
2021/06/14 02:28:11;;;;;;;9.68;4.55;;;;;;;9.65;92.53;102364.41;5004835;28;20034;-80
2021/06/14 02:30:37;;;;;;;6.75;4.70;;;;;;;9.54;93.11;102353.78;5033027;28;20033;-82
2021/06/14 02:33:04;;;;;;;8.57;4.80;;;;;;;9.60;92.56;102355.16;5035071;28;20037;-78
2021/06/14 02:35:30;;;;;;;6.90;4.40;;;;;;;9.59;93.58;102354.31;5031322;28;20500;-78
2021/06/14 02:38:00;;;;;;;6.78;4.43;;;;;;;9.57;93.04;102357.97;5039613;28;20040;-79
2021/06/14 02:40:31;;;;;;;10.35;4.78;;;;;;;9.59;93.60;102364.81;5034312;28;20045;-82
2021/06/14 02:43:00;;;;;;;13.02;5.20;;;;;;;9.55;93.89;102368.56;5015745;28;20029;-80
2021/06/14 02:45:27;;;;;;;11.75;4.72;;;;;;;9.45;93.09;102352.59;5044759;28;20041;-79
2021/06/14 02:47:59;;;;;;;;;;;;;;;9.62;93.29;102369.81;5026969;28;20033;-80
2021/06/14 02:50:29;;;;;;;7.60;5.30;;;;;;;9.56;93.78;102354.50;5021481;28;20028;-79
2021/06/14 02:52:55;;;;;;;9.05;5.20;;;;;;;9.58;93.56;102352.63;5014262;28;20045;-79
2021/06/14 02:55:33;;;;;;;8.90;4.88;;;;;;;9.64;93.14;102351.38;5043385;28;20029;-80
2021/06/14 02:58:02;;;;;;;12.02;5.35;;;;;;;9.61;93.21;102355.06;5048538;28;20030;-80
2021/06/14 03:00:31;;;;;;;9.32;4.40;;;;;;;9.64;92.67;102354.84;5046054;28;20037;-78
2021/06/14 03:03:03;;;;;;;10.43;5.18;;;;;;;9.62;93.03;102358.50;5047425;28;20069;-80
2021/06/14 03:05:30;;;;;;;6.50;4.80;;;;;;;9.61;93.25;102357.69;5030654;28;20032;-80
2021/06/14 03:08:00;;;;;;;10.57;5.05;;;;;;;9.54;93.40;102346.75;5031784;28;20127;-79
2021/06/14 03:10:30;;;;;;;10.45;4.65;;;;;;;9.46;93.19;102337.72;5031441;28;20076;-79
2021/06/14 03:12:57;;;;;;;9.88;5.18;;;;;;;9.51;93.51;102362.69;5039355;28;20451;-80
2021/06/14 03:15:25;;;;;;;6.70;4.63;;;;;;;9.56;93.69;102362.38;5031311;28;20029;-80
2021/06/14 03:17:55;;;;;;;9.75;4.80;;;;;;;9.57;93.32;102369.31;5022775;28;20118;-80
2021/06/14 03:20:24;;;;;;;8.55;4.82;;;;;;;9.46;93.16;102354.28;5019547;28;20555;-79
2021/06/14 03:22:52;;;;;;;11.38;5.35;;;;;;;9.52;93.83;102353.88;5031706;28;20038;-80
2021/06/14 03:25:19;;;;;;;10.38;4.75;;;;;;;9.52;93.56;102353.88;5037534;28;20045;-78
2021/06/14 03:27:46;;;;;;;12.82;4.43;;;;;;;9.50;92.51;102344.44;5031849;28;20029;-78
2021/06/14 03:30:14;;;;;;;7.65;4.53;;;;;;;9.54;93.18;102356.41;5011302;28;20034;-80
2021/06/14 03:32:44;;;;;;;10.00;5.05;;;;;;;9.56;93.25;102357.13;5047043;28;20029;-80
2021/06/14 03:35:16;;;;;;;10.25;4.90;;;;;;;9.53;93.57;102352.09;5046491;28;20032;-79
2021/06/14 03:37:43;;;;;;;9.70;5.25;;;;;;;9.64;93.55;102348.78;5047246;28;20438;-79
2021/06/14 03:40:11;;;;;;;8.60;5.03;;;;;;;9.66;93.95;102347.75;5046593;28;20120;-77
2021/06/14 03:42:37;;;;;;;8.30;4.85;;;;;;;9.74;92.87;102342.00;5041929;28;20044;-79
2021/06/14 03:45:03;;;;;;;10.13;5.35;;;;;;;9.85;93.29;102349.97;5034286;28;20041;-79
2021/06/14 03:47:28;;;;;;;13.05;5.63;;;;;;;9.88;92.93;102341.06;5030372;28;20030;-78
2021/06/14 03:49:54;;;;;;;12.07;4.88;;;;;;;9.87;93.25;102331.50;5029421;28;20053;-78
2021/06/14 03:52:19;;;;;;;10.43;5.18;;;;;;;9.89;93.02;102335.72;5015664;28;20037;-78
2021/06/14 03:54:45;;;;;;;12.68;5.53;;;;;;;10.04;92.91;102333.00;5047482;28;20517;-78
2021/06/14 03:57:11;;;;;;;9.27;5.22;;;;;;;10.12;93.02;102339.41;5012712;28;20034;-78
2021/06/14 03:59:36;;;;;;;8.88;5.65;;;;;;;10.12;92.89;102334.16;5013332;28;20024;-78
2021/06/14 04:02:02;;;;;;;10.75;5.32;;;;;;;10.23;92.75;102324.75;5030180;28;20385;-79
2021/06/14 04:07:09;;;;;;;12.70;5.40;;;;;;;10.49;90.10;102326.41;5015629;28;20037;-79
2021/06/14 04:09:35;;;;;;;14.30;5.18;;;;;;;10.56;89.63;102321.56;5035175;28;20746;-79
2021/06/14 04:12:02;;;;;;;7.85;4.88;;;;;;;10.58;90.21;102326.72;5033050;28;20052;-78
2021/06/14 04:14:27;;;;;;;12.13;5.70;;;;;;;10.59;89.33;102321.38;5021337;28;20495;-78
2021/06/14 04:16:53;;;;;;;9.82;5.20;;;;;;;10.67;89.47;102326.06;5047400;28;20037;-78
2021/06/14 04:19:19;;;;;;;9.18;4.68;;;;;;;10.63;89.21;102319.38;5013981;28;20044;-78
2021/06/14 04:21:44;;;;;;;9.88;4.57;;;;;;;10.74;89.01;102323.81;5030420;28;20033;-78
2021/06/14 04:24:10;;;;;;;10.85;5.10;;;;;;;10.80;88.93;102329.50;5027488;28;20086;-78
2021/06/14 04:26:36;;;;;;;10.73;5.30;;;;;;;10.81;88.76;102331.19;5032231;28;20048;-78
2021/06/14 04:29:02;;;;;;;8.95;5.05;;;;;;;10.89;88.50;102344.59;5033830;28;20037;-79
2021/06/14 04:31:27;;;;;;;9.70;5.13;;;;;;;11.00;87.79;102340.34;5042962;28;20033;-79
2021/06/14 04:33:53;;;;;;;12.20;4.40;;;;;;;11.01;86.82;102328.91;5017418;28;20049;-79
2021/06/14 04:36:18;;;;;;;11.18;5.10;;;;;;;11.08;87.11;102335.41;5030199;28;20074;-78
2021/06/14 04:38:44;;;;;;;12.07;5.82;;;;;;;11.12;87.70;102336.84;5029248;28;20301;-79
2021/06/14 04:41:09;;;;;;;13.43;5.03;;;;;;;11.21;87.79;102351.94;5037098;28;20041;-79
2021/06/14 04:43:35;;;;;;;10.65;5.63;;;;;;;11.24;87.90;102351.69;5036578;28;20041;-79
2021/06/14 04:46:01;;;;;;;13.48;5.28;;;;;;;11.30;87.30;102337.28;5036377;28;21696;-79
2021/06/14 04:48:26;;;;;;;9.27;5.00;;;;;;;11.42;86.87;102359.22;5027918;28;20039;-78
2021/06/14 04:50:52;;;;;;;12.65;4.70;;;;;;;11.44;86.17;102357.31;5038652;28;20048;-78
2021/06/14 04:53:18;;;;;;;11.18;4.95;;;;;;;11.48;85.29;102353.50;5035098;28;20047;-79
2021/06/14 04:55:43;;;;;;;7.38;4.20;;;;;;;11.57;85.34;102357.25;5027378;28;20060;-78
2021/06/14 04:58:09;;;;;;;9.60;4.10;;;;;;;11.61;85.33;102356.91;5027362;28;20029;-78
2021/06/14 05:00:34;;;;;;;12.60;4.65;;;;;;;11.61;85.58;102356.06;5005727;28;20053;-77
2021/06/14 05:03:01;;;;;;;9.32;4.15;;;;;;;11.68;85.22;102360.75;5009511;28;20415;-79
2021/06/14 05:05:26;;;;;;;9.32;4.65;;;;;;;11.81;85.58;102350.16;5023272;28;20084;-79
2021/06/14 05:07:52;;;;;;;9.98;4.15;;;;;;;11.98;83.97;102358.56;5011042;28;20029;-78
2021/06/14 05:10:17;;;;;;;8.00;4.25;;;;;;;12.05;83.60;102346.66;5042245;28;20041;-77
2021/06/14 05:12:43;;;;;;;8.50;4.00;;;;;;;12.22;82.92;102359.38;5021118;28;20128;-77
2021/06/14 05:15:09;;;;;;;6.22;3.60;;;;;;;12.33;82.48;102355.88;5044127;28;20040;-78
2021/06/14 05:17:35;;;;;;;11.68;4.07;;;;;;;12.44;82.44;102349.81;5018599;28;20538;-79
2021/06/14 05:20:00;;;;;;;8.70;3.95;;;;;;;12.56;82.24;102348.00;5010547;28;20033;-80
2021/06/14 05:22:26;;;;;;;9.48;3.75;;;;;;;12.74;82.30;102354.44;5032523;28;20053;-77
2021/06/14 05:24:51;;;;;;;8.45;3.97;;;;;;;12.87;80.80;102354.31;5061486;28;20021;-78
2021/06/14 05:27:17;;;;;;;10.45;3.80;;;;;;;13.01;80.14;102361.94;5035092;28;20037;-78
2021/06/14 05:29:42;;;;;;;7.32;3.45;;;;;;;13.10;80.92;102356.91;5040707;28;20039;-79
2021/06/14 05:32:08;;;;;;;5.20;3.53;;;;;;;13.25;80.08;102361.75;5045180;28;20053;-81
2021/06/14 05:34:34;;;;;;;9.75;4.20;;;;;;;13.42;80.26;102359.59;5011999;28;20467;-79
2021/06/14 05:36:59;;;;;;;9.05;3.50;;;;;;;13.52;76.86;102351.75;5028793;28;20097;-80
2021/06/14 05:39:25;;;;;;;7.95;3.38;;;;;;;13.60;77.22;102350.19;5012279;28;20144;-79
2021/06/14 05:41:50;;;;;;;8.57;3.80;;;;;;;13.64;77.17;102340.22;5024777;28;20037;-79
2021/06/14 05:44:16;;;;;;;9.02;3.35;;;;;;;13.72;77.12;102334.28;5026904;28;20076;-80
2021/06/14 05:46:41;;;;;;;6.80;3.38;;;;;;;13.91;76.58;102334.41;5030317;28;20061;-80
2021/06/14 05:49:07;;;;;;;6.07;3.10;;;;;;;14.01;76.09;102332.69;5029648;28;20556;-80
2021/06/14 05:51:32;;;;;;;11.90;3.38;;;;;;;14.21;75.30;102333.59;5023803;28;20083;-78
2021/06/14 05:53:58;;;;;;;7.63;3.58;;;;;;;14.27;74.41;102328.78;5033122;28;20120;-77
2021/06/14 05:56:24;;;;;;;8.38;3.30;;;;;;;14.30;74.15;102331.97;5032796;28;20033;-79
2021/06/14 05:58:51;;;;;;;9.88;3.50;;;;;;;14.39;74.12;102332.97;5043643;28;20026;-80
2021/06/14 06:01:17;;;;;;;6.38;3.05;;;;;;;14.50;73.36;102326.78;5027525;28;20029;-80
2021/06/14 06:03:42;;;;;;;5.47;3.40;;;;;;;14.58;73.67;102311.97;5032132;28;20083;-80
2021/06/14 06:06:08;;;;;;;9.05;2.97;;;;;;;14.75;73.22;102328.16;5000192;28;20102;-79
2021/06/14 06:08:33;;;;;;;4.68;2.75;;;;;;;14.86;73.02;102325.41;5038077;28;20037;-78
2021/06/14 06:10:59;;;;;;;6.45;2.88;;;;;;;15.03;73.15;102329.19;5031785;28;20057;-79
2021/06/14 06:13:24;;;;;;;6.43;3.10;;;;;;;15.18;73.80;102332.22;5032992;28;20119;-80
2021/06/14 06:15:50;;;;;;;7.47;3.03;;;;;;;15.35;72.21;102330.69;5038390;28;20486;-82
2021/06/14 06:18:15;;;;;;;5.45;2.63;;;;;;;15.45;69.97;102323.63;4999710;28;20124;-78
2021/06/14 06:20:41;;;;;;;5.68;2.40;;;;;;;15.47;69.90;102329.59;5030236;28;20087;-81
2021/06/14 06:23:06;;;;;;;8.45;2.80;;;;;;;15.67;69.72;102326.94;5032191;28;20063;-78
2021/06/14 06:25:33;;;;;;;7.35;2.58;;;;;;;15.83;68.70;102331.69;5044653;28;20083;-80
2021/06/14 06:27:59;;;;;;;5.80;2.53;;;;;;;15.92;66.23;102329.00;5034663;28;20397;-80
2021/06/14 06:30:29;;;;;;;5.88;2.40;;;;;;;16.07;66.86;102324.09;5028710;28;20042;-77
2021/06/14 06:32:55;;;;;;;8.80;2.58;;;;;;;16.13;67.99;102322.69;5033952;28;20041;-78
2021/06/14 06:35:22;;;;;;;7.35;2.85;;;;;;;16.41;68.84;102320.91;5050236;28;20030;-78
2021/06/14 06:37:48;;;;;;;6.57;2.70;;;;;;;16.60;66.26;102312.03;5039259;28;20088;-80
2021/06/14 06:40:14;;;;;;;5.38;2.88;;;;;;;16.65;65.80;102308.91;5030487;28;20115;-79
2021/06/14 06:42:40;;;;;;;8.88;2.97;;;;;;;16.75;66.04;102304.41;5034546;28;20047;-81
2021/06/14 06:45:07;;;;;;;6.60;2.70;;;;;;;16.86;65.05;102293.63;5018403;28;20053;-79
2021/06/14 06:47:34;;;;;;;7.68;2.70;;;;;;;16.96;65.79;102298.03;5030937;28;20029;-79
2021/06/14 06:50:01;;;;;;;11.32;2.65;;;;;;;17.03;65.24;102291.97;5028454;28;20056;-80
2021/06/14 06:52:26;;;;;;;7.03;3.03;;;;;;;17.12;65.84;102288.41;5035411;28;20028;-79
2021/06/14 06:54:52;;;;;;;7.65;2.95;;;;;;;17.20;66.25;102294.78;5030609;28;20034;-78
2021/06/14 06:57:19;;;;;;;5.78;2.35;;;;;;;17.39;64.88;102288.47;5031419;28;20411;-78
2021/06/14 06:59:44;;;;;;;6.90;2.65;;;;;;;17.62;64.31;102280.84;5030456;28;20063;-83
2021/06/14 07:02:09;;;;;;;7.60;2.70;;;;;;;17.81;62.79;102275.31;5020866;28;20080;-79
2021/06/14 07:04:37;;;;;;;6.05;2.75;;;;;;;17.80;63.38;102263.03;5017014;28;20044;-79
2021/06/14 07:07:03;;;;;;;8.23;3.08;;;;;;;18.17;62.38;102269.88;5034235;28;20508;-81
2021/06/14 07:09:29;;;;;;;7.38;2.90;;;;;;;18.30;61.15;102264.13;5037183;28;20036;-80
2021/06/14 07:11:56;;;;;;;5.95;2.90;;;;;;;18.57;62.01;102259.53;5038940;28;20069;-80
2021/06/14 07:14:23;;;;;;;8.68;3.17;;;;;;;18.68;58.64;102264.56;5030857;28;20478;-79
2021/06/14 07:16:48;;;;;;;10.05;3.22;;;;;;;18.68;58.40;102256.59;5030907;28;20041;-79
2021/06/14 07:19:14;;;;;;;8.90;3.45;;;;;;;18.83;57.58;102248.84;5040497;28;20128;-79
2021/06/14 07:21:40;;;;;;;6.38;3.08;;;;;;;18.88;56.27;102251.84;5034324;28;20041;-80
2021/06/14 07:24:06;;;;;;;8.70;3.42;;;;;;;19.07;57.18;102245.38;5055429;28;20083;-80
2021/06/14 07:26:33;;;;;;;7.15;3.17;;;;;;;19.31;55.86;102256.97;5016588;28;20049;-80
2021/06/14 07:29:00;;;;;;;8.13;3.35;;;;;;;19.29;57.40;102256.31;5031319;28;20045;-77
2021/06/14 07:31:25;;;;;;;9.35;3.58;;;;;;;19.38;56.63;102252.66;5042294;28;20073;-80
2021/06/14 07:33:57;;;;;;;10.15;3.45;;;;;;;19.35;54.92;102239.69;5014401;28;20048;-81
2021/06/14 07:36:23;;;;;;;6.80;3.17;;;;;;;19.49;55.58;102246.16;5030793;28;20037;-79
2021/06/14 07:38:48;;;;;;;7.78;3.95;;;;;;;19.66;55.04;102245.13;5029023;28;20044;-79
2021/06/14 07:41:14;;;;;;;8.52;3.42;;;;;;;19.88;54.84;102245.44;5037669;28;20041;-77
2021/06/14 07:43:39;;;;;;;9.20;3.80;;;;;;;19.99;55.31;102242.41;5037295;28;20050;-79
2021/06/14 07:46:06;;;;;;;8.45;3.85;;;;;;;20.13;55.91;102249.66;5029354;28;20069;-78
2021/06/14 07:48:32;;;;;;;9.77;3.60;;;;;;;20.36;53.46;102251.53;5035187;28;20029;-78
2021/06/14 07:50:58;;;;;;;7.60;3.28;;;;;;;20.40;53.65;102243.03;5013138;28;20055;-77
2021/06/14 07:53:24;;;;;;;9.23;3.50;;;;;;;20.55;54.43;102244.94;5038887;28;20030;-80
2021/06/14 07:55:52;;;;;;;12.48;3.90;;;;;;;20.66;52.98;102241.88;5029021;28;20043;-81
2021/06/14 07:58:17;;;;;;;6.45;3.13;;;;;;;20.48;52.47;102226.16;5050530;28;20557;-79
2021/06/14 08:00:43;;;;;;;6.72;3.42;;;;;;;20.60;52.62;102224.78;5043332;28;20033;-81
2021/06/14 08:03:09;;;;;;;10.45;3.65;;;;;;;20.71;53.55;102215.53;5031427;28;20041;-79
2021/06/14 08:05:36;;;;;;;7.60;3.60;;;;;;;20.99;54.64;102210.47;5030050;28;20076;-78
2021/06/14 08:08:03;;;;;;;7.97;3.00;;;;;;;21.15;52.83;102203.34;5028915;28;20033;-80
2021/06/14 08:10:28;;;;;;;8.57;3.83;;;;;;;21.25;51.89;102200.41;5055703;28;20048;-80
2021/06/14 08:12:54;;;;;;;6.93;3.33;;;;;;;21.42;51.83;102198.41;5046704;28;20506;-79
2021/06/14 08:15:25;;;;;;;7.20;3.70;;;;;;;21.47;49.87;102199.53;5027906;28;20083;-81
2021/06/14 08:17:54;;;;;;;11.32;4.22;;;;;;;21.22;50.38;102187.44;5045960;28;20065;-80
2021/06/14 08:20:31;;;;;;;12.07;4.30;;;;;;;21.30;51.50;102182.00;5044093;28;20048;-80
2021/06/14 08:25:41;;;;;;;6.97;3.80;;;;;;;21.60;50.39;102174.88;5031415;28;20045;-80
2021/06/14 08:28:07;;;;;;;9.82;3.63;;;;;;;21.87;51.88;102175.19;5040168;28;20087;-82
2021/06/14 08:30:33;;;;;;;8.85;3.60;;;;;;;21.96;48.30;102177.59;5034028;28;20037;-79
2021/06/14 08:32:59;;;;;;;7.32;3.38;;;;;;;21.99;48.42;102170.22;5030032;28;20503;-79
2021/06/14 08:35:27;;;;;;;8.20;3.22;;;;;;;22.06;47.25;102153.25;5029640;28;20042;-80
2021/06/14 08:37:54;;;;;;;10.40;3.40;;;;;;;22.18;46.76;102156.25;5044414;28;20037;-80
2021/06/14 08:40:23;;;;;;;6.82;3.20;;;;;;;22.33;47.66;102148.22;5028706;28;20553;-81
2021/06/14 08:42:49;;;;;;;6.72;3.28;;;;;;;22.52;47.34;102147.56;5015205;28;20038;-82
2021/06/14 08:45:16;;;;;;;9.52;3.78;;;;;;;22.66;47.68;102143.19;5026005;28;20038;-80
2021/06/14 08:47:43;;;;;;;8.05;3.53;;;;;;;22.86;47.71;102132.63;5036151;28;20044;-78
2021/06/14 08:50:13;;;;;;;10.32;3.85;;;;;;;22.80;45.30;102127.25;5028604;28;20048;-81
2021/06/14 08:52:40;;;;;;;8.27;3.30;;;;;;;22.88;44.41;102127.91;5018846;28;20032;-82
2021/06/14 08:55:09;;;;;;;10.65;3.55;;;;;;;23.01;45.73;102123.69;5039845;28;20044;-80
2021/06/14 08:57:34;;;;;;;6.85;3.30;;;;;;;23.02;47.25;102120.81;5049346;28;20040;-80
2021/06/14 09:00:00;;;;;;;8.27;3.25;;;;;;;23.25;46.50;102120.56;5012541;28;20521;-77
2021/06/14 09:02:26;;;;;;;8.18;3.63;;;;;;;23.32;44.84;102123.28;5006844;28;20087;-82
2021/06/14 09:04:52;;;;;;;7.70;3.35;;;;;;;23.15;44.57;102105.88;5029666;28;20447;-82
2021/06/14 09:07:18;;;;;;;10.73;3.70;;;;;;;23.18;44.89;102121.56;5029821;28;20224;-80
2021/06/14 09:09:44;;;;;;;10.48;4.03;;;;;;;23.34;44.60;102110.53;5029202;28;20037;-79
2021/06/14 09:12:10;;;;;;;11.70;3.55;;;;;;;23.43;45.64;102112.03;5027827;28;20045;-80
2021/06/14 09:14:41;;;;;;;8.07;3.50;;;;;;;23.49;44.62;102108.53;5029345;28;20044;-81
2021/06/14 09:17:11;;;;;;;8.63;3.80;;;;;;;23.40;45.12;102099.03;5030540;28;20045;-84
2021/06/14 09:19:44;;;;;;;8.13;3.10;;;;;;;23.70;45.28;102101.41;5030002;28;20124;-80
2021/06/14 09:22:14;;;;;;;8.55;3.63;;;;;;;23.81;44.05;102097.31;5032464;28;20048;-80
2021/06/14 09:25:11;;;;;;;8.38;3.53;;;;;;;23.91;44.85;102092.44;5037042;28;20068;-78
2021/06/14 09:27:46;;;;;;;6.88;3.55;;;;;;;24.09;45.61;102092.66;5038785;28;20045;-80
2021/06/14 09:30:27;;;;;;;7.78;3.70;;;;;;;24.11;43.23;102084.44;5031650;28;20057;-81
2021/06/14 09:33:08;;;;;;;6.53;3.33;;;;;;;24.03;44.54;102088.09;5049800;28;20041;-81
2021/06/14 09:35:41;;;;;;;10.55;3.63;;;;;;;24.29;42.53;102090.00;5013380;28;20527;-80
2021/06/14 09:38:18;;;;;;;9.50;3.50;;;;;;;24.33;43.45;102087.72;5013770;28;20502;-79
2021/06/14 09:40:47;;;;;;;8.43;3.60;;;;;;;24.59;44.15;102078.88;5033918;28;20091;-80
2021/06/14 09:43:35;;;;;;;6.65;3.13;;;;;;;24.38;42.05;102073.72;5026071;28;20026;-80
2021/06/14 09:46:06;;;;;;;8.18;3.33;;;;;;;24.61;47.46;102071.47;5030856;28;20033;-78
2021/06/14 09:48:36;;;;;;;6.40;2.78;;;;;;;24.72;42.62;102077.25;5017209;28;20079;-79
2021/06/14 09:51:07;;;;;;;7.10;3.35;;;;;;;24.61;42.18;102065.28;5035585;28;20128;-81
2021/06/14 09:53:45;;;;;;;11.38;3.55;;;;;;;24.70;44.24;102061.34;5041756;28;20120;-80
2021/06/14 09:56:17;;;;;;;6.40;3.03;;;;;;;24.91;42.56;102062.13;5052336;28;20037;-80
2021/06/14 09:58:43;;;;;;;7.15;2.92;;;;;;;25.00;43.26;102055.50;5047700;28;20543;-79
2021/06/14 10:01:09;;;;;;;7.03;3.30;;;;;;;24.93;39.96;102057.38;5034706;28;20046;-80
2021/06/14 10:03:46;;;;;;;8.07;3.20;;;;;;;24.79;42.12;102048.50;5042237;28;20053;-81
2021/06/14 10:06:12;;;;;;;5.93;3.28;;;;;;;24.87;41.14;102051.00;5067861;28;20454;-80
2021/06/14 10:08:38;;;;;;;7.05;2.75;;;;;;;25.29;43.72;102050.69;5047711;28;20042;-81
2021/06/14 10:11:07;;;;;;;8.43;3.30;;;;;;;25.54;41.87;102048.06;5060869;28;20080;-80
2021/06/14 10:13:35;;;;;;;6.65;3.10;;;;;;;25.58;39.99;102041.22;5033217;28;20037;-78
2021/06/14 10:16:06;;;;;;;4.57;2.70;;;;;;;25.44;39.65;102035.09;5033965;28;20052;-80
2021/06/14 10:18:34;;;;;;;8.93;3.00;;;;;;;25.58;41.80;102043.91;5033661;28;20087;-78
2021/06/14 10:21:04;;;;;;;6.80;2.60;;;;;;;25.63;39.75;102038.72;5035454;28;20362;-79
2021/06/14 10:23:30;;;;;;;5.22;2.65;;;;;;;25.58;39.90;102046.59;5060245;28;20511;-79
2021/06/14 10:25:57;;;;;;;4.72;2.25;;;;;;;25.67;38.64;102028.38;5050127;28;20058;-81
2021/06/14 10:28:24;;;;;;;3.47;2.20;;;;;;;25.84;39.76;102038.41;5033042;28;20033;-81
2021/06/14 10:30:51;;;;;;;4.72;2.42;;;;;;;26.21;39.33;102025.09;5031401;28;20037;-80
2021/06/14 10:33:21;;;;;;;5.97;2.75;;;;;;;26.07;36.64;102020.91;5046460;28;20040;-81
2021/06/14 10:35:48;;;;;;;6.05;2.65;;;;;;;25.89;38.34;102026.16;5011943;28;20567;-80
2021/06/14 10:38:14;;;;;;;8.18;2.83;;;;;;;26.06;38.79;102031.88;5012954;28;20063;-82
2021/06/14 10:40:39;;;;;;;7.13;2.88;;;;;;;26.18;39.59;102027.41;5012478;28;20035;-79
2021/06/14 10:43:05;;;;;;;7.93;2.80;;;;;;;26.43;39.14;102027.41;5018840;28;20424;-78
2021/06/14 10:45:31;;;;;;;6.88;2.60;;;;;;;26.65;38.36;102027.00;5026975;28;20060;-80
2021/06/14 10:47:58;;;;;;;3.65;2.45;;;;;;;26.77;37.60;102031.44;5031020;28;20761;-81
2021/06/14 10:50:26;;;;;;;5.90;2.55;;;;;;;26.90;41.51;102033.16;5048148;28;20455;-81
2021/06/14 10:52:54;;;;;;;6.07;2.97;;;;;;;26.90;37.38;102033.16;5028580;28;20038;-81
2021/06/14 10:55:30;;;;;;;6.10;2.90;;;;;;;26.84;37.05;102030.53;5028055;28;20045;-81
2021/06/14 10:57:56;;;;;;;3.78;2.58;;;;;;;26.94;38.84;102028.16;5048977;28;20032;-81
2021/06/14 11:00:34;;;;;;;6.88;2.78;;;;;;;27.29;40.78;102032.91;5028603;28;20041;-81
2021/06/14 11:03:04;;;;;;;9.18;2.53;;;;;;;27.31;38.46;102036.19;5027375;28;20037;-81
2021/06/14 11:05:44;;;;;;;4.03;2.40;;;;;;;27.33;37.40;102023.31;5025236;28;20061;-82
2021/06/14 11:08:21;;;;;;;5.30;2.40;;;;;;;27.28;36.78;102025.91;5048349;28;20056;-81
2021/06/14 11:11:06;;;;;;;5.82;2.50;;;;;;;27.30;38.51;102027.31;5043189;28;20037;-81
2021/06/14 11:13:32;;;;;;;8.38;2.60;;;;;;;27.52;36.57;102019.56;5018156;28;20037;-80
2021/06/14 11:16:00;;;;;;;9.38;2.67;;;;;;;27.61;35.79;102038.06;5048771;28;20099;-80
2021/06/14 11:18:27;;;;;;;5.95;2.42;;;;;;;27.60;37.45;102042.66;5034928;28;20087;-81
2021/06/14 11:21:07;;;;;;;8.50;2.80;;;;;;;27.64;36.29;102033.06;5032683;28;20033;-80
2021/06/14 11:23:33;;;;;;;9.75;2.70;;;;;;;27.67;36.23;102024.53;5024943;28;20025;-81
2021/06/14 11:25:59;;;;;;;9.18;3.38;;;;;;;27.62;37.39;102012.78;5051043;28;20059;-81
2021/06/14 11:28:33;;;;;;;6.75;2.47;;;;;;;27.65;37.72;102004.22;5069964;28;20024;-80
2021/06/14 11:31:00;;;;;;;5.00;2.75;;;;;;;27.81;38.61;102008.94;5029141;28;20042;-83
2021/06/14 11:33:30;;;;;;;5.40;2.50;;;;;;;27.99;36.89;102001.84;5012845;28;20049;-80